.
WxDataArchive / Data Records for 2012-12-24
2012-12-23 December 2012 2012-12-25

Data Records for Monday, 24 December 2012

Time	Temp	Chill	HIndex	Humid	Dewpt	 Wind 	HiWind	WindDir	Rain 	Barom 
-----	----	-----	------	-----	-----	------	------	-------	-----	----- 
00:00	26.3	26.3	26.3	83	21.9	1	4	90	0.00	29.998 
00:05	26.1	26.1	26.1	83	21.7	0	2	90	0.00	29.998 
00:10	26.0	26.0	26.0	83	21.6	0	2	90	0.00	29.998 
00:15	25.8	25.8	25.8	83	21.4	0	1	90	0.00	29.994 
00:20	25.7	25.7	25.7	83	21.3	0	0	---	0.00	29.994 
00:25	25.6	25.6	25.6	83	21.2	0	1	90	0.00	29.994 
00:30	25.4	25.4	25.4	84	21.3	0	1	90	0.00	29.996 
00:35	25.4	25.4	25.4	84	21.3	1	2	90	0.00	29.996 
00:40	25.3	25.3	25.3	84	21.2	1	3	90	0.00	29.996 
00:45	25.3	25.3	25.3	84	21.2	1	2	90	0.00	29.995 
00:50	25.3	25.3	25.3	84	21.2	0	2	90	0.00	29.995 
00:55	25.1	25.1	25.1	84	21.0	0	2	90	0.00	29.995 
01:00	25.0	25.0	25.0	84	20.9	0	2	90	0.00	29.995 
01:05	25.0	25.0	25.0	84	20.9	0	2	90	0.00	29.995 
01:10	25.0	25.0	25.0	84	20.9	0	2	90	0.00	29.995 
01:15	24.8	24.8	24.8	84	20.7	0	1	90	0.00	29.993 
01:20	24.7	24.7	24.7	84	20.6	0	0	---	0.00	29.993 
01:25	24.5	24.5	24.5	85	20.6	0	0	---	0.00	29.993 
01:30	24.4	24.4	24.4	85	20.6	0	0	---	0.00	29.996 
01:35	24.2	24.2	24.2	85	20.4	0	0	---	0.00	29.996 
01:40	24.2	24.2	24.2	85	20.4	0	0	---	0.00	29.996 
01:45	24.2	24.2	24.2	86	20.6	0	1	90	0.00	29.994 
01:50	24.4	24.4	24.4	86	20.8	0	1	90	0.00	29.994 
01:55	24.4	24.4	24.4	85	20.6	0	0	---	0.00	29.994 
02:00	24.4	24.4	24.4	86	20.8	0	0	---	0.00	29.988 
02:05	24.2	24.2	24.2	86	20.6	0	0	---	0.00	29.988 
02:10	24.2	24.2	24.2	86	20.6	0	0	---	0.00	29.988 
02:15	24.2	24.2	24.2	86	20.6	0	0	---	0.00	29.979 
02:20	24.2	24.2	24.2	86	20.6	0	2	90	0.00	29.979 
02:25	24.4	24.4	24.4	86	20.8	0	3	90	0.00	29.979 
02:30	24.5	24.5	24.5	86	20.9	0	2	90	0.00	29.980 
02:35	24.5	24.5	24.5	86	20.9	0	2	90	0.00	29.980 
02:40	24.7	24.7	24.7	85	20.8	0	1	90	0.00	29.980 
02:45	24.5	24.5	24.5	85	20.6	0	1	90	0.00	29.983 
02:50	24.5	24.5	24.5	85	20.6	0	1	90	0.00	29.983 
02:55	24.5	24.5	24.5	85	20.6	0	2	90	0.00	29.983 
03:00	24.5	24.5	24.5	85	20.6	0	2	90	0.00	29.978 
03:05	24.7	24.7	24.7	85	20.8	1	2	90	0.00	29.978 
03:10	24.7	24.7	24.7	85	20.8	1	4	90	0.00	29.978 
03:15	24.8	24.8	24.8	85	20.9	1	4	90	0.00	29.975 
03:20	24.8	24.8	24.8	84	20.7	2	4	90	0.00	29.975 
03:25	24.8	24.8	24.8	84	20.7	1	4	90	0.00	29.975 
03:30	24.8	24.8	24.8	84	20.7	2	5	90	0.00	29.964 
03:35	25.0	25.0	25.0	84	20.9	1	3	90	0.00	29.964 
03:40	25.0	25.0	25.0	84	20.9	1	4	90	0.00	29.964 
03:45	25.0	25.0	25.0	84	20.9	2	5	90	0.00	29.958 
03:50	25.0	25.0	25.0	84	20.9	2	4	90	0.00	29.958 
03:55	25.0	25.0	25.0	84	20.9	1	4	90	0.00	29.958 
04:00	24.8	24.8	24.8	84	20.7	1	3	90	0.00	29.952 
04:05	24.8	24.8	24.8	84	20.7	0	2	90	0.00	29.952 
04:10	24.8	24.8	24.8	84	20.7	0	2	90	0.00	29.952 
04:15	24.8	24.8	24.8	84	20.7	1	2	90	0.00	29.950 
04:20	24.8	24.8	24.8	84	20.7	1	4	90	0.00	29.950 
04:25	24.8	24.8	24.8	84	20.7	1	3	90	0.00	29.950 
04:30	25.0	25.0	25.0	84	20.9	2	6	90	0.00	29.925 
04:35	25.0	25.0	25.0	84	20.9	3	7	112	0.00	29.925 
04:40	25.1	25.1	25.1	84	21.0	2	7	112	0.00	29.925 
04:45	25.3	25.3	25.3	84	21.2	2	6	112	0.00	29.915 
04:50	25.3	25.3	25.3	84	21.2	2	5	112	0.00	29.915 
04:55	25.4	25.4	25.4	84	21.3	2	6	90	0.00	29.915 
05:00	25.4	25.4	25.4	85	21.5	2	7	90	0.00	29.911 
05:05	25.6	25.6	25.6	85	21.7	2	6	90	0.00	29.911 
05:10	25.6	25.6	25.6	84	21.5	2	5	90	0.00	29.911 
05:15	25.6	25.6	25.6	85	21.7	1	4	90	0.00	29.921 
05:20	25.7	25.7	25.7	85	21.8	2	4	90	0.00	29.921 
05:25	26.0	26.0	26.0	85	22.1	3	7	90	0.00	29.921 
05:30	26.1	26.1	26.1	84	21.9	2	5	90	0.00	29.919 
05:35	26.3	26.3	26.3	84	22.1	3	6	90	0.00	29.919 
05:40	26.3	26.3	26.3	84	22.1	2	5	90	0.00	29.919 
05:45	26.3	26.3	26.3	84	22.1	3	6	90	0.00	29.914 
05:50	26.3	26.3	26.3	84	22.1	1	4	90	0.00	29.914 
05:55	26.3	26.3	26.3	84	22.1	3	9	90	0.00	29.914 
06:00	26.3	26.3	26.3	84	22.1	3	7	90	0.00	29.907 
06:05	26.4	26.4	26.4	84	22.2	3	6	90	0.00	29.907 
06:10	26.4	26.4	26.4	85	22.5	3	7	90	0.00	29.907 
06:15	26.4	26.4	26.4	85	22.5	3	7	90	0.00	29.901 
06:20	26.6	26.6	26.6	85	22.7	3	7	90	0.00	29.901 
06:25	26.6	26.6	26.6	85	22.7	2	5	90	0.00	29.901 
06:30	26.6	26.6	26.6	85	22.7	1	3	90	0.00	29.904 
06:35	26.6	26.6	26.6	85	22.7	2	5	90	0.00	29.904 
06:40	26.4	26.4	26.4	86	22.8	2	6	90	0.00	29.904 
06:45	26.4	26.4	26.4	86	22.8	1	4	90	0.00	29.903 
06:50	26.3	26.3	26.3	86	22.7	2	7	90	0.00	29.903 
06:55	26.3	26.3	26.3	86	22.7	2	4	90	0.00	29.903 
07:00	26.3	26.3	26.3	86	22.7	2	6	68	0.00	29.897 
07:05	26.3	26.3	26.3	86	22.7	1	4	68	0.00	29.897 
07:10	26.4	26.4	26.4	87	23.1	1	5	90	0.00	29.897 
07:15	26.6	26.6	26.6	87	23.3	3	5	90	0.00	29.901 
07:20	26.7	26.7	26.7	86	23.1	2	5	90	0.00	29.901 
07:25	27.0	27.0	27.0	86	23.4	3	9	90	0.00	29.901 
07:30	27.2	22.5	27.2	86	23.6	4	9	90	0.00	29.892 
07:35	27.2	27.2	27.2	85	23.3	3	5	90	0.00	29.892 
07:40	27.3	22.6	27.3	85	23.4	4	8	90	0.00	29.892 
07:45	27.3	27.3	27.3	85	23.4	3	7	90	0.00	29.891 
07:50	27.5	27.5	27.5	85	23.6	3	7	90	0.00	29.891 
07:55	27.5	27.5	27.5	85	23.6	3	7	90	0.00	29.891 
08:00	27.5	27.5	27.5	85	23.6	3	7	90	0.00	29.890 
08:05	27.5	27.5	27.5	85	23.6	3	9	90	0.00	29.890 
08:10	27.6	27.6	27.6	85	23.7	2	6	112	0.00	29.890 
08:15	27.6	27.6	27.6	85	23.7	2	6	112	0.00	29.890 
08:20	27.6	27.6	27.6	85	23.7	3	6	90	0.00	29.890 
08:25	27.6	23.0	27.6	86	24.0	4	7	90	0.00	29.890 
08:30	27.6	23.0	27.6	86	24.0	4	9	90	0.00	29.873 
08:35	27.6	27.6	27.6	86	24.0	3	10	90	0.00	29.873 
08:40	27.8	23.2	27.8	86	24.2	4	8	90	0.00	29.873 
08:45	27.8	27.8	27.8	86	24.2	3	9	90	0.00	29.884 
08:50	27.8	27.8	27.8	86	24.2	3	7	90	0.00	29.884 
08:55	27.8	27.8	27.8	86	24.2	3	6	68	0.00	29.884 
09:00	27.9	27.9	27.9	86	24.3	2	7	90	0.00	29.893 
09:05	27.9	27.9	27.9	86	24.3	2	5	112	0.00	29.893 
09:10	28.1	28.1	28.1	86	24.5	2	6	90	0.00	29.893 
09:15	28.1	28.1	28.1	86	24.5	3	7	90	0.00	29.888 
09:20	28.1	23.6	28.1	86	24.5	4	10	90	0.00	29.888 
09:25	28.1	28.1	28.1	86	24.5	3	9	90	0.00	29.888 
09:30	28.1	23.6	28.1	86	24.5	4	9	112	0.00	29.872 
09:35	28.2	23.7	28.2	86	24.6	4	10	68	0.00	29.872 
09:40	28.2	28.2	28.2	86	24.6	3	7	90	0.00	29.872 
09:45	28.4	28.4	28.4	85	24.5	3	6	112	0.00	29.880 
09:50	28.4	28.4	28.4	85	24.5	2	6	90	0.00	29.880 
09:55	28.5	28.5	28.5	85	24.6	3	10	90	0.00	29.880 
10:00	28.7	28.7	28.7	85	24.8	3	9	90	0.00	29.883 
10:05	29.0	29.0	29.0	85	25.1	3	6	90	0.00	29.883 
10:10	29.1	29.1	29.1	85	25.2	3	6	90	0.00	29.883 
10:15	29.3	29.3	29.3	85	25.4	3	6	90	0.00	29.884 
10:20	29.3	29.3	29.3	85	25.4	3	10	90	0.00	29.884 
10:25	29.3	23.9	29.3	85	25.4	5	10	90	0.00	29.884 
10:30	29.3	25.0	29.3	85	25.4	4	9	90	0.00	29.872 
10:35	29.4	25.1	29.4	85	25.5	4	10	90	0.00	29.872 
10:40	29.7	29.7	29.7	85	25.8	3	7	90	0.00	29.872 
10:45	29.7	25.4	29.7	85	25.8	4	9	90	0.00	29.869 
10:50	29.7	24.4	29.7	85	25.8	5	11	90	0.00	29.869 
10:55	29.8	25.5	29.8	84	25.6	4	7	90	0.00	29.869 
11:00	29.8	29.8	29.8	84	25.6	3	9	90	0.00	29.868 
11:05	30.0	30.0	30.0	85	26.0	1	4	90	0.00	29.868 
11:10	30.1	30.1	30.1	84	25.9	3	7	90	0.00	29.868 
11:15	30.1	30.1	30.1	84	25.9	2	7	90	0.00	29.861 
11:20	30.1	30.1	30.1	84	25.9	3	9	90	0.00	29.861 
11:25	30.3	30.3	30.3	84	26.1	2	7	90	0.00	29.861 
11:30	30.3	26.1	30.3	84	26.1	4	11	90	0.00	29.853 
11:35	30.3	30.3	30.3	84	26.1	2	4	90	0.00	29.853 
11:40	30.3	30.3	30.3	84	26.1	3	5	90	0.00	29.853 
11:45	30.4	30.4	30.4	84	26.2	2	6	90	0.00	29.857 
11:50	30.4	30.4	30.4	84	26.2	2	5	90	0.00	29.857 
11:55	30.6	30.6	30.6	84	26.4	1	4	90	0.00	29.857 
12:00	30.6	30.6	30.6	83	26.1	2	6	112	0.00	29.857 
12:05	30.6	30.6	30.6	83	26.1	1	5	90	0.00	29.857 
12:10	30.6	30.6	30.6	84	26.4	1	4	90	0.00	29.857 
12:15	30.6	30.6	30.6	83	26.1	3	6	90	0.00	29.856 
12:20	30.7	30.7	30.7	84	26.4	1	6	90	0.00	29.856 
12:25	30.7	30.7	30.7	84	26.4	1	4	90	0.00	29.856 
12:30	30.9	30.9	30.9	85	26.9	0	2	90	0.00	29.858 
12:35	30.7	30.7	30.7	85	26.7	0	2	90	0.00	29.858 
12:40	30.7	30.7	30.7	85	26.7	0	2	90	0.00	29.858 
12:45	30.7	30.7	30.7	86	27.0	1	5	90	0.00	29.841 
12:50	30.7	26.6	30.7	87	27.3	4	7	90	0.00	29.841 
12:55	30.7	30.7	30.7	87	27.3	3	5	90	0.00	29.841 
13:00	30.9	30.9	30.9	88	27.8	3	6	112	0.00	29.813 
13:05	30.9	30.9	30.9	88	27.8	3	7	90	0.00	29.813 
13:10	31.0	26.9	31.0	88	27.9	4	7	90	0.00	29.813 
13:15	31.0	31.0	31.0	88	27.9	3	7	90	0.00	29.810 
13:20	31.0	31.0	31.0	88	27.9	2	6	90	0.00	29.810 
13:25	30.9	30.9	30.9	88	27.8	2	5	90	0.00	29.810 
13:30	30.9	30.9	30.9	88	27.8	1	3	90	0.00	29.829 
13:35	30.9	30.9	30.9	88	27.8	0	0	---	0.00	29.829 
13:40	30.9	30.9	30.9	88	27.8	0	1	90	0.00	29.829 
13:45	30.9	30.9	30.9	88	27.8	0	1	90	0.00	29.830 
13:50	30.9	30.9	30.9	88	27.8	0	3	90	0.00	29.830 
13:55	30.9	30.9	30.9	88	27.8	1	4	90	0.00	29.830 
14:00	30.9	30.9	30.9	88	27.8	1	3	90	0.00	29.822 
14:05	30.9	30.9	30.9	89	28.0	1	3	90	0.00	29.822 
14:10	30.9	30.9	30.9	89	28.0	2	4	90	0.00	29.822 
14:15	31.0	31.0	31.0	89	28.1	1	5	68	0.00	29.808 
14:20	31.0	31.0	31.0	90	28.4	1	4	68	0.00	29.808 
14:25	31.0	31.0	31.0	90	28.4	2	5	90	0.00	29.808 
14:30	31.0	31.0	31.0	90	28.4	2	5	90	0.00	29.802 
14:35	31.0	31.0	31.0	90	28.4	1	4	90	0.00	29.802 
14:40	31.0	31.0	31.0	90	28.4	1	4	90	0.00	29.802 
14:45	31.0	31.0	31.0	90	28.4	2	4	90	0.00	29.809 
14:50	31.2	31.2	31.2	90	28.6	1	2	90	0.00	29.809 
14:55	31.2	31.2	31.2	90	28.6	1	3	90	0.00	29.809 
15:00	31.2	31.2	31.2	90	28.6	1	4	90	0.00	29.812 
15:05	31.0	31.0	31.0	90	28.4	1	2	90	0.00	29.812 
15:10	31.0	31.0	31.0	90	28.4	0	2	90	0.00	29.812 
15:15	31.2	31.2	31.2	90	28.6	0	1	90	0.00	29.813 
15:20	31.2	31.2	31.2	90	28.6	0	1	90	0.00	29.813 
15:25	31.2	31.2	31.2	90	28.6	1	3	90	0.00	29.813 
15:30	31.2	31.2	31.2	90	28.6	0	2	90	0.00	29.812 
15:35	31.2	31.2	31.2	90	28.6	0	2	90	0.00	29.812 
15:40	31.2	31.2	31.2	90	28.6	0	1	90	0.00	29.812 
15:45	31.3	31.3	31.3	90	28.7	0	2	90	0.00	29.822 
15:50	31.2	31.2	31.2	90	28.6	0	2	90	0.00	29.822 
15:55	31.2	31.2	31.2	90	28.6	0	2	90	0.00	29.822 
16:00	31.3	31.3	31.3	90	28.7	0	1	90	0.00	29.825 
16:05	31.3	31.3	31.3	90	28.7	0	0	---	0.00	29.825 
16:10	31.3	31.3	31.3	90	28.7	0	0	---	0.00	29.825 
16:15	31.3	31.3	31.3	90	28.7	0	1	90	0.00	29.825 
16:20	31.3	31.3	31.3	90	28.7	0	0	---	0.00	29.825 
16:25	31.3	31.3	31.3	90	28.7	0	0	---	0.00	29.825 
16:30	31.3	31.3	31.3	90	28.7	0	0	---	0.00	29.827 
16:35	31.3	31.3	31.3	90	28.7	0	0	---	0.00	29.827 
16:40	31.3	31.3	31.3	90	28.7	0	1	90	0.00	29.827 
16:45	31.2	31.2	31.2	90	28.6	0	1	90	0.00	29.838 
16:50	31.2	31.2	31.2	90	28.6	0	0	---	0.00	29.838 
16:55	31.2	31.2	31.2	89	28.3	0	0	---	0.00	29.838 
17:00	31.3	31.3	31.3	90	28.7	0	0	---	0.00	29.846 
17:05	31.3	31.3	31.3	90	28.7	0	0	---	0.00	29.846 
17:10	31.3	31.3	31.3	90	28.7	0	0	---	0.00	29.846 
17:15	31.3	31.3	31.3	90	28.7	0	1	90	0.00	29.856 
17:20	31.3	31.3	31.3	90	28.7	0	1	90	0.00	29.856 
17:25	31.3	31.3	31.3	90	28.7	0	1	90	0.00	29.856 
17:30	31.3	31.3	31.3	90	28.7	0	1	90	0.00	29.858 
17:35	31.3	31.3	31.3	90	28.7	0	1	90	0.00	29.858 
17:40	31.5	31.5	31.5	90	28.9	0	0	---	0.00	29.858 
17:45	31.3	31.3	31.3	90	28.7	0	2	90	0.00	29.871 
17:50	31.3	31.3	31.3	90	28.7	0	2	90	0.00	29.871 
17:55	31.3	31.3	31.3	90	28.7	0	1	90	0.00	29.871 
18:00	31.3	31.3	31.3	90	28.7	0	1	90	0.00	29.881 
18:05	31.3	31.3	31.3	90	28.7	0	1	90	0.00	29.881 
18:10	31.3	31.3	31.3	90	28.7	0	1	90	0.00	29.881 
18:15	31.3	31.3	31.3	90	28.7	0	1	90	0.00	29.888 
18:20	31.3	31.3	31.3	90	28.7	0	2	90	0.00	29.888 
18:25	31.3	31.3	31.3	90	28.7	0	1	90	0.00	29.888 
18:30	31.3	31.3	31.3	90	28.7	0	2	90	0.00	29.897 
18:35	31.3	31.3	31.3	90	28.7	0	1	90	0.00	29.897 
18:40	31.3	31.3	31.3	90	28.7	0	2	90	0.00	29.897 
18:45	31.3	31.3	31.3	91	29.0	0	1	90	0.00	29.903 
18:50	31.3	31.3	31.3	91	29.0	0	1	90	0.00	29.903 
18:55	31.3	31.3	31.3	91	29.0	0	1	90	0.00	29.903 
19:00	31.3	31.3	31.3	91	29.0	0	2	90	0.00	29.912 
19:05	31.3	31.3	31.3	91	29.0	0	1	90	0.00	29.912 
19:10	31.3	31.3	31.3	91	29.0	0	1	90	0.00	29.912 
19:15	31.3	31.3	31.3	91	29.0	0	2	90	0.00	29.915 
19:20	31.3	31.3	31.3	92	29.3	0	2	90	0.00	29.915 
19:25	31.3	31.3	31.3	92	29.3	0	1	90	0.00	29.915 
19:30	31.3	31.3	31.3	92	29.3	0	1	90	0.00	29.921 
19:35	31.3	31.3	31.3	92	29.3	0	1	90	0.00	29.921 
19:40	31.3	31.3	31.3	92	29.3	0	1	90	0.00	29.921 
19:45	31.3	31.3	31.3	92	29.3	0	2	90	0.00	29.928 
19:50	31.3	31.3	31.3	92	29.3	0	1	90	0.00	29.928 
19:55	31.2	31.2	31.2	92	29.2	0	2	90	0.00	29.928 
20:00	31.2	31.2	31.2	92	29.2	0	2	90	0.00	29.928 
20:05	31.2	31.2	31.2	92	29.2	0	2	90	0.00	29.928 
20:10	31.2	31.2	31.2	92	29.2	0	1	90	0.00	29.928 
20:15	31.2	31.2	31.2	92	29.2	0	2	90	0.00	29.935 
20:20	31.2	31.2	31.2	92	29.2	0	2	90	0.00	29.935 
20:25	31.2	31.2	31.2	92	29.2	0	2	90	0.00	29.935 
20:30	31.2	31.2	31.2	92	29.2	0	2	90	0.00	29.934 
20:35	31.2	31.2	31.2	92	29.2	0	1	90	0.00	29.934 
20:40	31.2	31.2	31.2	92	29.2	0	3	90	0.00	29.934 
20:45	31.2	31.2	31.2	92	29.2	0	2	90	0.00	29.939 
20:50	31.2	31.2	31.2	92	29.2	0	2	90	0.00	29.939 
20:55	31.2	31.2	31.2	92	29.2	0	2	90	0.00	29.939 
21:00	31.2	31.2	31.2	92	29.2	0	2	90	0.00	29.940 
21:05	31.2	31.2	31.2	92	29.2	0	2	90	0.00	29.940 
21:10	31.2	31.2	31.2	93	29.4	0	1	90	0.00	29.940 
21:15	31.2	31.2	31.2	93	29.4	0	1	90	0.00	29.947 
21:20	31.2	31.2	31.2	93	29.4	0	2	90	0.00	29.947 
21:25	31.2	31.2	31.2	93	29.4	0	4	90	0.00	29.947 
21:30	31.2	31.2	31.2	92	29.2	1	4	292	0.00	29.951 
21:35	31.0	31.0	31.0	92	29.0	1	2	292	0.00	29.951 
21:40	30.9	30.9	30.9	92	28.9	1	4	292	0.00	29.951 
21:45	30.7	30.7	30.7	92	28.7	1	3	315	0.00	29.960 
21:50	30.7	30.7	30.7	92	28.7	0	2	315	0.00	29.960 
21:55	30.7	30.7	30.7	92	28.7	0	1	315	0.00	29.960 
22:00	30.6	30.6	30.6	92	28.6	0	2	315	0.00	29.965 
22:05	30.6	30.6	30.6	92	28.6	0	2	315	0.00	29.965 
22:10	30.4	30.4	30.4	92	28.4	0	2	315	0.00	29.965 
22:15	30.4	30.4	30.4	92	28.4	0	4	315	0.00	29.978 
22:20	30.1	30.1	30.1	92	28.1	1	4	338	0.00	29.978 
22:25	30.0	30.0	30.0	92	28.0	1	3	292	0.00	29.978 
22:30	29.8	29.8	29.8	92	27.8	1	3	315	0.00	29.992 
22:35	29.8	29.8	29.8	92	27.8	1	3	292	0.00	29.992 
22:40	29.8	29.8	29.8	92	27.8	0	4	292	0.00	29.992 
22:45	29.8	29.8	29.8	92	27.8	0	2	292	0.00	30.002 
22:50	29.8	29.8	29.8	91	27.5	0	2	292	0.00	30.002 
22:55	29.8	29.8	29.8	91	27.5	0	2	292	0.00	30.002 
23:00	29.7	29.7	29.7	91	27.4	1	2	292	0.00	30.012 
23:05	29.5	29.5	29.5	91	27.2	1	3	292	0.00	30.012 
23:10	29.5	29.5	29.5	91	27.2	0	2	292	0.00	30.012 
23:15	29.5	29.5	29.5	91	27.2	0	2	292	0.00	30.015 
23:20	29.4	29.4	29.4	90	26.8	0	3	292	0.00	30.015 
23:25	29.4	29.4	29.4	90	26.8	1	3	292	0.00	30.015 
23:30	29.4	29.4	29.4	90	26.8	0	2	292	0.00	30.023 
23:35	29.4	29.4	29.4	90	26.8	0	2	292	0.00	30.023 
23:40	29.3	29.3	29.3	90	26.7	0	2	292	0.00	30.023 
23:45	29.4	29.4	29.4	89	26.6	0	3	292	0.00	30.028 
23:50	29.3	29.3	29.3	89	26.5	0	2	292	0.00	30.028 
23:55	29.3	29.3	29.3	89	26.5	0	2	292	0.00	30.028 

CoCoRaHS
IN-AL-39
A2 Web Hosting
Creative Commons License
GoDaddy
search engine by freefind advanced

loaded 2018-11-18 11:09:52 • last modified 2010-11-18 10:43:29
Privacy PolicyDisclaimer
• wx.awcolley.com is powered by PmWiki v.2002016 •
• all content (unless otherwise noted) © 2018 A W Colley